sensor_id;sensor_type;location;lat;lon;timestamp;P1;durP1;ratioP1;P2;durP2;ratioP2
35675;SDS011;21790;42.668;23.298;2023-01-29T00:01:53;18.42;;;10.68;;
35675;SDS011;21790;42.668;23.298;2023-01-29T00:04:19;18.77;;;10.40;;
35675;SDS011;21790;42.668;23.298;2023-01-29T00:06:45;19.25;;;10.48;;
35675;SDS011;21790;42.668;23.298;2023-01-29T00:09:10;16.60;;;9.98;;
35675;SDS011;21790;42.668;23.298;2023-01-29T00:11:37;17.80;;;9.88;;
35675;SDS011;21790;42.668;23.298;2023-01-29T00:14:03;19.45;;;10.20;;
35675;SDS011;21790;42.668;23.298;2023-01-29T00:16:29;17.33;;;9.65;;
35675;SDS011;21790;42.668;23.298;2023-01-29T00:18:54;21.33;;;10.63;;
35675;SDS011;21790;42.668;23.298;2023-01-29T00:21:20;14.25;;;8.63;;
35675;SDS011;21790;42.668;23.298;2023-01-29T00:23:46;17.20;;;10.13;;
35675;SDS011;21790;42.668;23.298;2023-01-29T00:26:12;15.45;;;8.60;;
35675;SDS011;21790;42.668;23.298;2023-01-29T00:28:38;19.20;;;9.85;;
35675;SDS011;21790;42.668;23.298;2023-01-29T00:31:08;15.43;;;8.98;;
35675;SDS011;21790;42.668;23.298;2023-01-29T00:33:35;17.08;;;9.40;;
35675;SDS011;21790;42.668;23.298;2023-01-29T00:36:04;18.17;;;9.55;;
35675;SDS011;21790;42.668;23.298;2023-01-29T00:38:32;17.05;;;10.30;;
35675;SDS011;21790;42.668;23.298;2023-01-29T00:41:11;17.65;;;10.50;;
35675;SDS011;21790;42.668;23.298;2023-01-29T00:43:57;17.52;;;10.38;;
35675;SDS011;21790;42.668;23.298;2023-01-29T00:46:42;18.58;;;9.40;;
35675;SDS011;21790;42.668;23.298;2023-01-29T00:49:08;15.82;;;9.18;;
35675;SDS011;21790;42.668;23.298;2023-01-29T00:51:34;16.70;;;9.52;;
35675;SDS011;21790;42.668;23.298;2023-01-29T00:54:00;16.45;;;9.45;;
35675;SDS011;21790;42.668;23.298;2023-01-29T00:56:27;18.23;;;9.45;;
35675;SDS011;21790;42.668;23.298;2023-01-29T00:58:54;17.27;;;9.88;;
35675;SDS011;21790;42.668;23.298;2023-01-29T01:01:22;18.88;;;9.82;;
35675;SDS011;21790;42.668;23.298;2023-01-29T01:04:06;16.52;;;9.45;;
35675;SDS011;21790;42.668;23.298;2023-01-29T01:06:33;19.33;;;9.48;;
35675;SDS011;21790;42.668;23.298;2023-01-29T01:09:00;20.45;;;10.63;;
35675;SDS011;21790;42.668;23.298;2023-01-29T01:14:15;21.67;;;11.27;;
35675;SDS011;21790;42.668;23.298;2023-01-29T01:16:41;33.70;;;14.68;;
35675;SDS011;21790;42.668;23.298;2023-01-29T01:19:06;27.38;;;12.65;;
35675;SDS011;21790;42.668;23.298;2023-01-29T01:21:32;41.70;;;18.30;;
35675;SDS011;21790;42.668;23.298;2023-01-29T01:23:57;23.98;;;13.02;;
35675;SDS011;21790;42.668;23.298;2023-01-29T01:26:25;27.98;;;12.90;;
35675;SDS011;21790;42.668;23.298;2023-01-29T01:28:51;32.97;;;15.63;;
35675;SDS011;21790;42.668;23.298;2023-01-29T01:31:17;22.55;;;11.52;;
35675;SDS011;21790;42.668;23.298;2023-01-29T01:33:43;18.17;;;9.95;;
35675;SDS011;21790;42.668;23.298;2023-01-29T01:36:09;20.45;;;11.02;;
35675;SDS011;21790;42.668;23.298;2023-01-29T01:38:37;15.70;;;9.65;;
35675;SDS011;21790;42.668;23.298;2023-01-29T01:41:10;18.42;;;10.00;;
35675;SDS011;21790;42.668;23.298;2023-01-29T01:43:50;16.55;;;9.57;;
35675;SDS011;21790;42.668;23.298;2023-01-29T01:46:21;25.70;;;11.73;;
35675;SDS011;21790;42.668;23.298;2023-01-29T01:48:58;21.00;;;10.55;;
35675;SDS011;21790;42.668;23.298;2023-01-29T01:57:22;18.08;;;9.55;;
35675;SDS011;21790;42.668;23.298;2023-01-29T01:59:56;20.95;;;10.70;;
35675;SDS011;21790;42.668;23.298;2023-01-29T02:02:27;19.55;;;9.57;;
35675;SDS011;21790;42.668;23.298;2023-01-29T02:05:11;18.85;;;10.75;;
35675;SDS011;21790;42.668;23.298;2023-01-29T02:07:57;19.65;;;10.57;;
35675;SDS011;21790;42.668;23.298;2023-01-29T02:10:43;19.02;;;10.25;;
35675;SDS011;21790;42.668;23.298;2023-01-29T02:13:10;18.27;;;10.57;;
35675;SDS011;21790;42.668;23.298;2023-01-29T02:15:37;19.42;;;10.60;;
35675;SDS011;21790;42.668;23.298;2023-01-29T02:18:06;20.42;;;10.40;;
35675;SDS011;21790;42.668;23.298;2023-01-29T02:20:33;19.20;;;10.23;;
35675;SDS011;21790;42.668;23.298;2023-01-29T02:26:14;16.30;;;9.20;;
35675;SDS011;21790;42.668;23.298;2023-01-29T02:29:05;16.45;;;10.05;;
35675;SDS011;21790;42.668;23.298;2023-01-29T02:34:37;19.52;;;10.05;;
35675;SDS011;21790;42.668;23.298;2023-01-29T02:37:38;17.75;;;10.13;;
35675;SDS011;21790;42.668;23.298;2023-01-29T02:40:18;20.92;;;10.20;;
35675;SDS011;21790;42.668;23.298;2023-01-29T02:46:29;17.30;;;10.07;;
35675;SDS011;21790;42.668;23.298;2023-01-29T02:49:09;20.42;;;9.73;;
35675;SDS011;21790;42.668;23.298;2023-01-29T02:51:37;15.45;;;9.57;;
35675;SDS011;21790;42.668;23.298;2023-01-29T02:56:59;21.17;;;11.48;;
35675;SDS011;21790;42.668;23.298;2023-01-29T02:59:38;17.40;;;9.93;;
35675;SDS011;21790;42.668;23.298;2023-01-29T03:02:12;17.38;;;9.63;;
35675;SDS011;21790;42.668;23.298;2023-01-29T03:04:45;18.33;;;10.27;;
35675;SDS011;21790;42.668;23.298;2023-01-29T03:07:21;16.90;;;9.43;;
35675;SDS011;21790;42.668;23.298;2023-01-29T03:10:20;17.65;;;9.60;;
35675;SDS011;21790;42.668;23.298;2023-01-29T03:13:12;15.68;;;9.20;;
35675;SDS011;21790;42.668;23.298;2023-01-29T03:15:46;16.80;;;8.57;;
35675;SDS011;21790;42.668;23.298;2023-01-29T03:18:21;15.85;;;9.23;;
35675;SDS011;21790;42.668;23.298;2023-01-29T03:20:53;14.15;;;9.18;;
35675;SDS011;21790;42.668;23.298;2023-01-29T03:23:24;13.55;;;7.82;;
35675;SDS011;21790;42.668;23.298;2023-01-29T03:26:13;16.77;;;9.05;;
35675;SDS011;21790;42.668;23.298;2023-01-29T03:28:59;15.68;;;8.25;;
35675;SDS011;21790;42.668;23.298;2023-01-29T03:31:46;13.70;;;7.70;;
35675;SDS011;21790;42.668;23.298;2023-01-29T03:34:28;13.67;;;7.90;;
35675;SDS011;21790;42.668;23.298;2023-01-29T03:37:06;11.70;;;7.47;;
35675;SDS011;21790;42.668;23.298;2023-01-29T03:39:39;12.10;;;7.20;;
35675;SDS011;21790;42.668;23.298;2023-01-29T03:47:45;8.93;;;6.35;;
35675;SDS011;21790;42.668;23.298;2023-01-29T03:53:27;10.85;;;7.00;;
35675;SDS011;21790;42.668;23.298;2023-01-29T03:58:41;12.98;;;7.00;;
35675;SDS011;21790;42.668;23.298;2023-01-29T04:03:57;10.18;;;6.38;;
35675;SDS011;21790;42.668;23.298;2023-01-29T04:06:31;12.57;;;6.97;;
35675;SDS011;21790;42.668;23.298;2023-01-29T04:09:03;11.70;;;6.88;;
35675;SDS011;21790;42.668;23.298;2023-01-29T04:11:35;10.57;;;6.35;;
35675;SDS011;21790;42.668;23.298;2023-01-29T04:14:05;9.10;;;6.35;;
35675;SDS011;21790;42.668;23.298;2023-01-29T04:16:32;10.43;;;6.65;;
35675;SDS011;21790;42.668;23.298;2023-01-29T04:19:01;11.10;;;6.68;;
35675;SDS011;21790;42.668;23.298;2023-01-29T04:21:29;10.45;;;6.57;;
35675;SDS011;21790;42.668;23.298;2023-01-29T04:23:58;11.48;;;6.35;;
35675;SDS011;21790;42.668;23.298;2023-01-29T04:31:56;10.45;;;5.95;;
35675;SDS011;21790;42.668;23.298;2023-01-29T04:39:43;11.07;;;6.20;;
35675;SDS011;21790;42.668;23.298;2023-01-29T04:42:23;10.32;;;6.90;;
35675;SDS011;21790;42.668;23.298;2023-01-29T04:45:23;10.30;;;6.38;;
35675;SDS011;21790;42.668;23.298;2023-01-29T04:48:17;10.32;;;5.93;;
35675;SDS011;21790;42.668;23.298;2023-01-29T04:54:11;10.70;;;7.10;;
35675;SDS011;21790;42.668;23.298;2023-01-29T05:00:39;10.20;;;6.00;;
35675;SDS011;21790;42.668;23.298;2023-01-29T05:05:55;9.52;;;5.72;;
35675;SDS011;21790;42.668;23.298;2023-01-29T05:08:28;10.75;;;6.63;;
35675;SDS011;21790;42.668;23.298;2023-01-29T05:10:56;11.32;;;6.53;;
35675;SDS011;21790;42.668;23.298;2023-01-29T05:13:22;10.10;;;5.57;;
35675;SDS011;21790;42.668;23.298;2023-01-29T05:18:28;9.98;;;6.30;;
35675;SDS011;21790;42.668;23.298;2023-01-29T05:20:55;8.77;;;5.88;;
35675;SDS011;21790;42.668;23.298;2023-01-29T05:23:21;10.32;;;6.57;;
35675;SDS011;21790;42.668;23.298;2023-01-29T05:25:47;9.82;;;6.45;;
35675;SDS011;21790;42.668;23.298;2023-01-29T05:28:14;10.65;;;6.53;;
35675;SDS011;21790;42.668;23.298;2023-01-29T05:30:41;7.35;;;5.22;;
35675;SDS011;21790;42.668;23.298;2023-01-29T05:35:55;10.05;;;6.28;;
35675;SDS011;21790;42.668;23.298;2023-01-29T05:38:23;9.32;;;6.47;;
35675;SDS011;21790;42.668;23.298;2023-01-29T05:40:49;9.63;;;6.10;;
35675;SDS011;21790;42.668;23.298;2023-01-29T05:43:16;11.23;;;6.43;;
35675;SDS011;21790;42.668;23.298;2023-01-29T05:48:17;10.90;;;5.97;;
35675;SDS011;21790;42.668;23.298;2023-01-29T05:50:43;9.65;;;6.43;;
35675;SDS011;21790;42.668;23.298;2023-01-29T05:53:08;8.75;;;5.90;;
35675;SDS011;21790;42.668;23.298;2023-01-29T05:55:34;9.85;;;6.45;;
35675;SDS011;21790;42.668;23.298;2023-01-29T05:57:59;10.02;;;7.03;;
35675;SDS011;21790;42.668;23.298;2023-01-29T06:00:25;9.65;;;5.97;;
35675;SDS011;21790;42.668;23.298;2023-01-29T06:02:51;9.48;;;6.38;;
35675;SDS011;21790;42.668;23.298;2023-01-29T06:05:16;9.13;;;6.45;;
35675;SDS011;21790;42.668;23.298;2023-01-29T06:07:42;11.55;;;7.63;;
35675;SDS011;21790;42.668;23.298;2023-01-29T06:10:13;10.77;;;7.00;;
35675;SDS011;21790;42.668;23.298;2023-01-29T06:12:40;12.35;;;6.65;;
35675;SDS011;21790;42.668;23.298;2023-01-29T06:15:07;9.32;;;6.20;;
35675;SDS011;21790;42.668;23.298;2023-01-29T06:17:33;10.63;;;6.70;;
35675;SDS011;21790;42.668;23.298;2023-01-29T06:19:59;11.85;;;6.60;;
35675;SDS011;21790;42.668;23.298;2023-01-29T06:22:25;11.32;;;7.40;;
35675;SDS011;21790;42.668;23.298;2023-01-29T06:24:50;11.75;;;7.68;;
35675;SDS011;21790;42.668;23.298;2023-01-29T06:27:15;14.35;;;6.88;;
35675;SDS011;21790;42.668;23.298;2023-01-29T06:29:41;12.55;;;7.63;;
35675;SDS011;21790;42.668;23.298;2023-01-29T06:32:06;10.75;;;6.32;;
35675;SDS011;21790;42.668;23.298;2023-01-29T06:34:32;11.35;;;7.55;;
35675;SDS011;21790;42.668;23.298;2023-01-29T06:36:57;9.85;;;7.32;;
35675;SDS011;21790;42.668;23.298;2023-01-29T06:39:23;11.75;;;7.30;;
35675;SDS011;21790;42.668;23.298;2023-01-29T06:41:48;15.10;;;8.35;;
35675;SDS011;21790;42.668;23.298;2023-01-29T06:44:14;13.45;;;7.70;;
35675;SDS011;21790;42.668;23.298;2023-01-29T06:46:39;14.20;;;7.95;;
35675;SDS011;21790;42.668;23.298;2023-01-29T06:49:05;12.13;;;7.63;;
35675;SDS011;21790;42.668;23.298;2023-01-29T06:51:30;13.55;;;7.85;;
35675;SDS011;21790;42.668;23.298;2023-01-29T06:53:56;11.02;;;7.28;;
35675;SDS011;21790;42.668;23.298;2023-01-29T06:56:22;15.90;;;8.52;;
35675;SDS011;21790;42.668;23.298;2023-01-29T06:58:48;13.43;;;8.40;;
35675;SDS011;21790;42.668;23.298;2023-01-29T07:01:14;13.52;;;7.63;;
35675;SDS011;21790;42.668;23.298;2023-01-29T07:03:39;12.38;;;8.02;;
35675;SDS011;21790;42.668;23.298;2023-01-29T07:06:08;14.13;;;8.07;;
35675;SDS011;21790;42.668;23.298;2023-01-29T07:08:37;11.35;;;7.57;;
35675;SDS011;21790;42.668;23.298;2023-01-29T07:11:04;12.30;;;7.65;;
35675;SDS011;21790;42.668;23.298;2023-01-29T07:13:30;15.68;;;8.20;;
35675;SDS011;21790;42.668;23.298;2023-01-29T07:15:59;14.55;;;8.25;;
35675;SDS011;21790;42.668;23.298;2023-01-29T07:18:26;14.65;;;8.68;;
35675;SDS011;21790;42.668;23.298;2023-01-29T07:20:52;17.88;;;10.00;;
35675;SDS011;21790;42.668;23.298;2023-01-29T07:23:17;17.27;;;8.48;;
35675;SDS011;21790;42.668;23.298;2023-01-29T07:25:43;16.45;;;9.45;;
35675;SDS011;21790;42.668;23.298;2023-01-29T07:28:09;16.85;;;9.77;;
35675;SDS011;21790;42.668;23.298;2023-01-29T07:30:35;14.45;;;9.20;;
35675;SDS011;21790;42.668;23.298;2023-01-29T07:33:01;15.57;;;8.98;;
35675;SDS011;21790;42.668;23.298;2023-01-29T07:35:28;14.30;;;8.85;;
35675;SDS011;21790;42.668;23.298;2023-01-29T07:37:54;17.75;;;9.18;;
35675;SDS011;21790;42.668;23.298;2023-01-29T07:40:19;17.35;;;9.38;;
35675;SDS011;21790;42.668;23.298;2023-01-29T07:42:44;16.05;;;9.32;;
35675;SDS011;21790;42.668;23.298;2023-01-29T07:45:11;16.85;;;9.45;;
35675;SDS011;21790;42.668;23.298;2023-01-29T07:47:37;16.85;;;9.75;;
35675;SDS011;21790;42.668;23.298;2023-01-29T07:50:05;22.80;;;9.80;;
35675;SDS011;21790;42.668;23.298;2023-01-29T07:52:31;16.98;;;9.65;;
35675;SDS011;21790;42.668;23.298;2023-01-29T07:54:58;19.15;;;10.43;;
35675;SDS011;21790;42.668;23.298;2023-01-29T07:57:23;18.67;;;10.02;;
35675;SDS011;21790;42.668;23.298;2023-01-29T07:59:49;16.58;;;9.60;;
35675;SDS011;21790;42.668;23.298;2023-01-29T08:02:15;17.30;;;10.10;;
35675;SDS011;21790;42.668;23.298;2023-01-29T08:04:41;15.43;;;9.32;;
35675;SDS011;21790;42.668;23.298;2023-01-29T08:07:06;19.15;;;9.63;;
35675;SDS011;21790;42.668;23.298;2023-01-29T08:09:33;22.40;;;11.65;;
35675;SDS011;21790;42.668;23.298;2023-01-29T08:11:59;16.75;;;10.32;;
35675;SDS011;21790;42.668;23.298;2023-01-29T08:14:24;19.40;;;9.98;;
35675;SDS011;21790;42.668;23.298;2023-01-29T08:16:50;21.73;;;11.60;;
35675;SDS011;21790;42.668;23.298;2023-01-29T08:19:15;19.52;;;9.73;;
35675;SDS011;21790;42.668;23.298;2023-01-29T08:21:41;17.88;;;10.13;;
35675;SDS011;21790;42.668;23.298;2023-01-29T08:24:07;18.17;;;10.23;;
35675;SDS011;21790;42.668;23.298;2023-01-29T08:26:35;19.67;;;10.25;;
35675;SDS011;21790;42.668;23.298;2023-01-29T08:29:00;17.50;;;10.13;;
35675;SDS011;21790;42.668;23.298;2023-01-29T08:31:26;19.52;;;10.75;;
35675;SDS011;21790;42.668;23.298;2023-01-29T08:33:54;23.08;;;10.90;;
35675;SDS011;21790;42.668;23.298;2023-01-29T08:36:20;18.55;;;10.05;;
35675;SDS011;21790;42.668;23.298;2023-01-29T08:38:45;17.80;;;10.90;;
35675;SDS011;21790;42.668;23.298;2023-01-29T08:41:11;15.88;;;10.40;;
35675;SDS011;21790;42.668;23.298;2023-01-29T08:43:37;17.33;;;8.98;;
35675;SDS011;21790;42.668;23.298;2023-01-29T08:46:04;17.55;;;9.32;;
35675;SDS011;21790;42.668;23.298;2023-01-29T08:48:31;19.40;;;10.55;;
35675;SDS011;21790;42.668;23.298;2023-01-29T08:50:57;16.48;;;10.15;;
35675;SDS011;21790;42.668;23.298;2023-01-29T08:53:24;16.70;;;10.07;;
35675;SDS011;21790;42.668;23.298;2023-01-29T08:55:50;17.95;;;10.02;;
35675;SDS011;21790;42.668;23.298;2023-01-29T08:58:15;17.08;;;9.95;;
35675;SDS011;21790;42.668;23.298;2023-01-29T09:00:41;18.10;;;10.30;;
35675;SDS011;21790;42.668;23.298;2023-01-29T09:03:06;21.92;;;11.70;;
35675;SDS011;21790;42.668;23.298;2023-01-29T09:05:33;19.90;;;11.32;;
35675;SDS011;21790;42.668;23.298;2023-01-29T09:07:59;20.77;;;10.57;;
35675;SDS011;21790;42.668;23.298;2023-01-29T09:10:25;24.05;;;10.23;;
35675;SDS011;21790;42.668;23.298;2023-01-29T09:12:51;19.38;;;10.80;;
35675;SDS011;21790;42.668;23.298;2023-01-29T09:15:16;22.52;;;11.50;;
35675;SDS011;21790;42.668;23.298;2023-01-29T09:17:45;18.60;;;10.73;;
35675;SDS011;21790;42.668;23.298;2023-01-29T09:20:10;19.63;;;10.45;;
35675;SDS011;21790;42.668;23.298;2023-01-29T09:22:36;24.30;;;12.63;;
35675;SDS011;21790;42.668;23.298;2023-01-29T09:25:01;20.40;;;11.15;;
35675;SDS011;21790;42.668;23.298;2023-01-29T09:27:27;27.33;;;10.93;;
35675;SDS011;21790;42.668;23.298;2023-01-29T09:29:52;22.98;;;11.50;;
35675;SDS011;21790;42.668;23.298;2023-01-29T09:32:18;20.42;;;11.93;;
35675;SDS011;21790;42.668;23.298;2023-01-29T09:34:43;25.60;;;13.55;;
35675;SDS011;21790;42.668;23.298;2023-01-29T09:37:09;20.77;;;12.70;;
35675;SDS011;21790;42.668;23.298;2023-01-29T09:39:34;20.95;;;11.63;;
35675;SDS011;21790;42.668;23.298;2023-01-29T09:47:29;21.50;;;11.90;;
35675;SDS011;21790;42.668;23.298;2023-01-29T09:50:11;21.42;;;11.93;;
35675;SDS011;21790;42.668;23.298;2023-01-29T09:55:45;20.70;;;11.32;;
35675;SDS011;21790;42.668;23.298;2023-01-29T09:58:21;20.42;;;11.50;;
35675;SDS011;21790;42.668;23.298;2023-01-29T10:06:39;22.02;;;12.23;;
35675;SDS011;21790;42.668;23.298;2023-01-29T10:23:11;23.02;;;12.30;;
35675;SDS011;21790;42.668;23.298;2023-01-29T10:25:40;22.25;;;12.80;;
35675;SDS011;21790;42.668;23.298;2023-01-29T10:28:13;23.15;;;12.90;;
35675;SDS011;21790;42.668;23.298;2023-01-29T10:30:49;24.65;;;13.00;;
35675;SDS011;21790;42.668;23.298;2023-01-29T10:33:24;23.90;;;12.20;;
35675;SDS011;21790;42.668;23.298;2023-01-29T10:35:58;23.45;;;12.07;;
35675;SDS011;21790;42.668;23.298;2023-01-29T10:38:36;21.85;;;12.68;;
35675;SDS011;21790;42.668;23.298;2023-01-29T10:52:21;29.50;;;14.90;;
35675;SDS011;21790;42.668;23.298;2023-01-29T10:54:53;25.60;;;14.20;;
35675;SDS011;21790;42.668;23.298;2023-01-29T11:00:26;30.80;;;15.48;;
35675;SDS011;21790;42.668;23.298;2023-01-29T11:02:55;31.77;;;15.90;;
35675;SDS011;21790;42.668;23.298;2023-01-29T11:05:23;32.08;;;15.38;;
35675;SDS011;21790;42.668;23.298;2023-01-29T11:08:02;33.63;;;16.17;;
35675;SDS011;21790;42.668;23.298;2023-01-29T11:10:32;35.65;;;17.48;;
35675;SDS011;21790;42.668;23.298;2023-01-29T11:13:04;30.58;;;15.32;;
35675;SDS011;21790;42.668;23.298;2023-01-29T11:15:31;29.15;;;15.57;;
35675;SDS011;21790;42.668;23.298;2023-01-29T11:20:36;32.22;;;16.17;;
35675;SDS011;21790;42.668;23.298;2023-01-29T11:23:01;32.47;;;15.38;;
35675;SDS011;21790;42.668;23.298;2023-01-29T11:25:27;32.72;;;16.08;;
35675;SDS011;21790;42.668;23.298;2023-01-29T11:28:00;30.10;;;15.32;;
35675;SDS011;21790;42.668;23.298;2023-01-29T11:30:27;31.88;;;16.25;;
35675;SDS011;21790;42.668;23.298;2023-01-29T11:33:04;30.73;;;16.67;;
35675;SDS011;21790;42.668;23.298;2023-01-29T11:35:44;30.42;;;15.68;;
35675;SDS011;21790;42.668;23.298;2023-01-29T11:40:43;29.08;;;15.60;;
35675;SDS011;21790;42.668;23.298;2023-01-29T11:43:30;30.83;;;15.50;;
35675;SDS011;21790;42.668;23.298;2023-01-29T11:45:59;35.00;;;17.63;;
35675;SDS011;21790;42.668;23.298;2023-01-29T11:48:43;28.00;;;15.48;;
35675;SDS011;21790;42.668;23.298;2023-01-29T11:51:19;24.10;;;10.85;;
35675;SDS011;21790;42.668;23.298;2023-01-29T11:53:54;30.73;;;15.85;;
35675;SDS011;21790;42.668;23.298;2023-01-29T11:56:31;30.50;;;15.23;;
35675;SDS011;21790;42.668;23.298;2023-01-29T11:59:03;35.08;;;16.70;;
35675;SDS011;21790;42.668;23.298;2023-01-29T12:01:35;33.35;;;16.95;;
35675;SDS011;21790;42.668;23.298;2023-01-29T12:04:14;31.25;;;16.33;;
35675;SDS011;21790;42.668;23.298;2023-01-29T12:06:51;28.35;;;15.63;;
35675;SDS011;21790;42.668;23.298;2023-01-29T12:09:19;30.00;;;16.00;;
35675;SDS011;21790;42.668;23.298;2023-01-29T12:11:47;28.10;;;15.20;;
35675;SDS011;21790;42.668;23.298;2023-01-29T12:14:29;30.85;;;15.90;;
35675;SDS011;21790;42.668;23.298;2023-01-29T12:17:10;28.60;;;14.48;;
35675;SDS011;21790;42.668;23.298;2023-01-29T12:19:47;31.02;;;14.95;;
35675;SDS011;21790;42.668;23.298;2023-01-29T12:22:22;35.00;;;16.13;;
35675;SDS011;21790;42.668;23.298;2023-01-29T12:24:55;25.73;;;13.77;;
35675;SDS011;21790;42.668;23.298;2023-01-29T12:36:01;28.67;;;13.40;;
35675;SDS011;21790;42.668;23.298;2023-01-29T12:38:31;27.23;;;14.43;;
35675;SDS011;21790;42.668;23.298;2023-01-29T12:41:02;24.73;;;12.82;;
35675;SDS011;21790;42.668;23.298;2023-01-29T12:43:43;25.05;;;14.48;;
35675;SDS011;21790;42.668;23.298;2023-01-29T12:46:20;24.90;;;13.82;;
35675;SDS011;21790;42.668;23.298;2023-01-29T12:48:49;26.92;;;13.50;;
35675;SDS011;21790;42.668;23.298;2023-01-29T12:51:18;24.77;;;12.77;;
35675;SDS011;21790;42.668;23.298;2023-01-29T12:53:55;25.40;;;13.35;;
35675;SDS011;21790;42.668;23.298;2023-01-29T12:56:28;25.17;;;14.38;;
35675;SDS011;21790;42.668;23.298;2023-01-29T12:59:16;24.77;;;14.35;;
35675;SDS011;21790;42.668;23.298;2023-01-29T13:01:55;27.97;;;16.47;;
35675;SDS011;21790;42.668;23.298;2023-01-29T13:07:20;24.67;;;14.07;;
35675;SDS011;21790;42.668;23.298;2023-01-29T13:09:58;24.40;;;13.73;;
35675;SDS011;21790;42.668;23.298;2023-01-29T13:12:29;23.13;;;13.10;;
35675;SDS011;21790;42.668;23.298;2023-01-29T13:14:58;26.73;;;13.85;;
35675;SDS011;21790;42.668;23.298;2023-01-29T13:20:45;24.17;;;13.63;;
35675;SDS011;21790;42.668;23.298;2023-01-29T13:22:51;25.38;;;13.15;;
35675;SDS011;21790;42.668;23.298;2023-01-29T13:25:20;26.38;;;13.63;;
35675;SDS011;21790;42.668;23.298;2023-01-29T13:27:46;25.38;;;14.07;;
35675;SDS011;21790;42.668;23.298;2023-01-29T13:30:31;29.23;;;15.23;;
35675;SDS011;21790;42.668;23.298;2023-01-29T13:33:02;27.00;;;14.85;;
35675;SDS011;21790;42.668;23.298;2023-01-29T13:35:35;28.70;;;15.07;;
35675;SDS011;21790;42.668;23.298;2023-01-29T13:38:04;27.90;;;16.15;;
35675;SDS011;21790;42.668;23.298;2023-01-29T13:40:43;29.15;;;16.80;;
35675;SDS011;21790;42.668;23.298;2023-01-29T13:43:17;28.80;;;15.63;;
35675;SDS011;21790;42.668;23.298;2023-01-29T13:45:45;30.80;;;17.02;;
35675;SDS011;21790;42.668;23.298;2023-01-29T13:50:44;36.43;;;18.67;;
35675;SDS011;21790;42.668;23.298;2023-01-29T13:53:26;34.95;;;18.45;;
35675;SDS011;21790;42.668;23.298;2023-01-29T13:56:26;34.05;;;17.08;;
35675;SDS011;21790;42.668;23.298;2023-01-29T13:59:05;31.98;;;16.58;;
35675;SDS011;21790;42.668;23.298;2023-01-29T14:06:56;37.42;;;17.92;;
35675;SDS011;21790;42.668;23.298;2023-01-29T14:14:50;36.00;;;18.10;;
35675;SDS011;21790;42.668;23.298;2023-01-29T14:17:26;34.65;;;16.95;;
35675;SDS011;21790;42.668;23.298;2023-01-29T14:20:14;34.78;;;17.33;;
35675;SDS011;21790;42.668;23.298;2023-01-29T14:22:43;37.20;;;19.70;;
35675;SDS011;21790;42.668;23.298;2023-01-29T14:25:15;36.38;;;17.80;;
35675;SDS011;21790;42.668;23.298;2023-01-29T14:27:47;40.97;;;19.30;;
35675;SDS011;21790;42.668;23.298;2023-01-29T14:30:15;37.83;;;18.73;;
35675;SDS011;21790;42.668;23.298;2023-01-29T14:32:45;35.15;;;17.52;;
35675;SDS011;21790;42.668;23.298;2023-01-29T14:35:19;37.72;;;18.50;;
35675;SDS011;21790;42.668;23.298;2023-01-29T14:37:46;42.17;;;20.55;;
35675;SDS011;21790;42.668;23.298;2023-01-29T14:40:22;38.88;;;19.05;;
35675;SDS011;21790;42.668;23.298;2023-01-29T14:42:54;38.53;;;18.25;;
35675;SDS011;21790;42.668;23.298;2023-01-29T14:45:26;36.60;;;17.50;;
35675;SDS011;21790;42.668;23.298;2023-01-29T14:47:57;32.60;;;17.38;;
35675;SDS011;21790;42.668;23.298;2023-01-29T14:53:03;34.13;;;18.52;;
35675;SDS011;21790;42.668;23.298;2023-01-29T14:55:51;33.53;;;17.02;;
35675;SDS011;21790;42.668;23.298;2023-01-29T14:58:45;39.88;;;17.02;;
35675;SDS011;21790;42.668;23.298;2023-01-29T15:01:36;32.28;;;16.85;;
35675;SDS011;21790;42.668;23.298;2023-01-29T15:04:18;35.78;;;17.25;;
35675;SDS011;21790;42.668;23.298;2023-01-29T15:06:51;33.75;;;17.52;;
35675;SDS011;21790;42.668;23.298;2023-01-29T15:09:39;34.47;;;16.75;;
35675;SDS011;21790;42.668;23.298;2023-01-29T15:15:09;38.83;;;18.17;;
35675;SDS011;21790;42.668;23.298;2023-01-29T15:18:12;29.48;;;15.40;;
35675;SDS011;21790;42.668;23.298;2023-01-29T15:26:01;32.67;;;16.92;;
35675;SDS011;21790;42.668;23.298;2023-01-29T15:28:30;35.53;;;17.25;;
35675;SDS011;21790;42.668;23.298;2023-01-29T15:30:59;35.45;;;17.77;;
35675;SDS011;21790;42.668;23.298;2023-01-29T15:33:28;34.42;;;17.85;;
35675;SDS011;21790;42.668;23.298;2023-01-29T15:35:59;35.88;;;18.70;;
35675;SDS011;21790;42.668;23.298;2023-01-29T15:38:26;38.67;;;17.50;;
35675;SDS011;21790;42.668;23.298;2023-01-29T15:40:57;36.60;;;18.00;;
35675;SDS011;21790;42.668;23.298;2023-01-29T15:46:24;39.78;;;19.45;;
35675;SDS011;21790;42.668;23.298;2023-01-29T15:48:59;35.50;;;17.48;;
35675;SDS011;21790;42.668;23.298;2023-01-29T15:51:30;31.52;;;16.95;;
35675;SDS011;21790;42.668;23.298;2023-01-29T15:59:37;39.35;;;18.65;;
35675;SDS011;21790;42.668;23.298;2023-01-29T16:02:26;40.45;;;20.77;;
35675;SDS011;21790;42.668;23.298;2023-01-29T16:04:53;42.80;;;21.00;;
35675;SDS011;21790;42.668;23.298;2023-01-29T16:07:20;46.28;;;21.30;;
35675;SDS011;21790;42.668;23.298;2023-01-29T16:09:49;46.80;;;22.33;;
35675;SDS011;21790;42.668;23.298;2023-01-29T16:12:16;52.65;;;23.48;;
35675;SDS011;21790;42.668;23.298;2023-01-29T16:14:42;47.70;;;21.95;;
35675;SDS011;21790;42.668;23.298;2023-01-29T16:17:30;47.15;;;22.67;;
35675;SDS011;21790;42.668;23.298;2023-01-29T16:20:04;46.10;;;22.92;;
35675;SDS011;21790;42.668;23.298;2023-01-29T16:22:34;43.20;;;21.63;;
35675;SDS011;21790;42.668;23.298;2023-01-29T16:25:05;44.60;;;22.02;;
35675;SDS011;21790;42.668;23.298;2023-01-29T16:27:36;44.35;;;22.02;;
35675;SDS011;21790;42.668;23.298;2023-01-29T16:30:03;44.97;;;21.17;;
35675;SDS011;21790;42.668;23.298;2023-01-29T16:32:29;41.60;;;20.65;;
35675;SDS011;21790;42.668;23.298;2023-01-29T16:34:56;47.45;;;20.17;;
35675;SDS011;21790;42.668;23.298;2023-01-29T16:37:28;45.85;;;21.02;;
35675;SDS011;21790;42.668;23.298;2023-01-29T16:39:57;44.75;;;21.05;;
35675;SDS011;21790;42.668;23.298;2023-01-29T16:42:29;38.50;;;20.55;;
35675;SDS011;21790;42.668;23.298;2023-01-29T16:45:03;40.65;;;19.95;;
35675;SDS011;21790;42.668;23.298;2023-01-29T16:50:21;44.05;;;21.63;;
35675;SDS011;21790;42.668;23.298;2023-01-29T16:53:00;50.58;;;23.10;;
35675;SDS011;21790;42.668;23.298;2023-01-29T16:55:34;44.13;;;21.08;;
35675;SDS011;21790;42.668;23.298;2023-01-29T16:58:03;46.95;;;20.92;;
35675;SDS011;21790;42.668;23.298;2023-01-29T17:00:44;38.25;;;19.45;;
35675;SDS011;21790;42.668;23.298;2023-01-29T17:03:19;40.97;;;19.42;;
35675;SDS011;21790;42.668;23.298;2023-01-29T17:05:49;44.30;;;20.27;;
35675;SDS011;21790;42.668;23.298;2023-01-29T17:08:17;35.35;;;17.40;;
35675;SDS011;21790;42.668;23.298;2023-01-29T17:10:51;36.55;;;17.63;;
35675;SDS011;21790;42.668;23.298;2023-01-29T17:13:27;35.38;;;17.70;;
35675;SDS011;21790;42.668;23.298;2023-01-29T17:15:52;32.67;;;17.35;;
35675;SDS011;21790;42.668;23.298;2023-01-29T17:18:24;33.50;;;17.45;;